createdAt,value
2017-12-17T00:02:12.805Z,79.54
2017-12-17T00:19:01.860Z,78.5
2017-12-17T00:20:45.129Z,78.5
2017-12-17T00:30:39.104Z,79.31
2017-12-17T00:31:19.702Z,78.74
2017-12-17T00:32:00.772Z,79.12
2017-12-17T00:32:42.440Z,78.45
2017-12-17T00:33:23.828Z,78.36
2017-12-17T00:34:05.493Z,79.22
2017-12-17T00:34:48.702Z,78.64
2017-12-17T00:35:29.171Z,79.22
2017-12-17T00:36:13.743Z,79.22
2017-12-17T00:36:53.875Z,80.16
2017-12-17T00:37:36.508Z,79.31
2017-12-17T00:38:17.546Z,79.31
2017-12-17T00:38:59.193Z,78.93
2017-12-17T00:39:40.008Z,78.83
2017-12-17T00:40:21.013Z,78.83
2017-12-17T00:41:02.064Z,79.22
2017-12-17T00:41:44.416Z,78.93
2017-12-17T00:42:28.753Z,78.83
2017-12-17T00:43:08.974Z,78.36
2017-12-17T00:43:50.114Z,78.64
2017-12-17T00:44:32.396Z,78.27
2017-12-17T00:45:13.530Z,78.93
2017-12-17T00:45:53.873Z,78.74
2017-12-17T00:46:34.604Z,78.64
2017-12-17T00:47:15.690Z,78.74
2017-12-17T00:47:55.890Z,78.27
2017-12-17T00:48:36.396Z,78.83
2017-12-17T00:49:17.958Z,78.93
2017-12-17T00:49:58.621Z,79.31
2017-12-17T00:50:39.852Z,79.25
2017-12-17T00:51:20.525Z,78.55
2017-12-17T00:58:08.631Z,78.93
2017-12-17T01:05:44.626Z,78.4
2017-12-17T01:14:32.371Z,77.26
2017-12-17T01:16:39.207Z,77.36
2017-12-17T01:24:06.891Z,77.51
2017-12-17T01:25:51.822Z,77.6
2017-12-17T01:27:35.534Z,77.89
2017-12-17T01:32:28.965Z,77.31
2017-12-17T01:36:10.657Z,77.79
2017-12-17T01:44:03.599Z,76.84
2017-12-17T01:52:14.240Z,77.41
2017-12-17T02:00:58.716Z,76.93
2017-12-17T02:01:43.309Z,76.84
2017-12-17T02:02:23.686Z,76.75
2017-12-17T02:03:04.392Z,76.75
2017-12-17T02:03:45.368Z,76.18
2017-12-17T02:06:04.454Z,76.08
2017-12-17T02:08:06.325Z,76.46
2017-12-17T02:12:51.870Z,74.85
2017-12-17T02:22:55.721Z,76.37
2017-12-17T02:23:45.374Z,76.46
2017-12-17T02:27:23.412Z,76.46
2017-12-17T02:28:17.800Z,75.99
2017-12-17T02:30:08.776Z,75.7
2017-12-17T02:31:00.288Z,75.79
2017-12-17T02:35:14.682Z,75.17
2017-12-17T02:40:50.534Z,74.03
2017-12-17T02:41:29.726Z,73.93
2017-12-17T02:42:11.974Z,74.51
2017-12-17T02:42:53.051Z,74.88
2017-12-17T02:43:34.049Z,74.88
2017-12-17T02:44:15.697Z,74.88
2017-12-17T02:52:15.437Z,74.75
2017-12-17T02:53:08.810Z,74.47
2017-12-17T02:53:46.552Z,74.85
2017-12-17T02:54:27.902Z,74.94
2017-12-17T02:55:09.027Z,74.66
2017-12-17T02:55:49.265Z,74.85
2017-12-17T02:56:30.035Z,75.04
2017-12-17T02:57:10.529Z,74.56
2017-12-17T02:57:53.630Z,74.94
2017-12-17T02:58:33.194Z,74.85
2017-12-17T02:59:13.661Z,75.99
2017-12-17T02:59:55.846Z,75.79
2017-12-17T03:00:35.970Z,75.51
2017-12-17T03:01:16.836Z,74.94
2017-12-17T03:01:57.859Z,75.42
2017-12-17T03:02:38.419Z,75.32
2017-12-17T03:03:19.081Z,75.32
2017-12-17T03:04:04.990Z,74.94
2017-12-17T03:04:45.621Z,75.51
2017-12-17T03:05:26.581Z,74.94
2017-12-17T03:06:09.528Z,75.79
2017-12-17T03:06:50.187Z,76.18
2017-12-17T03:07:35.825Z,75.6
2017-12-17T03:08:16.312Z,76.18
2017-12-17T03:08:56.700Z,75.89
2017-12-17T03:09:38.789Z,76.08
2017-12-17T03:10:19.438Z,75.23
2017-12-17T03:10:59.840Z,74.85
2017-12-17T03:11:40.269Z,75.99
2017-12-17T03:12:21.972Z,75.99
2017-12-17T03:13:02.305Z,75.99
2017-12-17T03:13:44.034Z,75.32
2017-12-17T03:14:24.631Z,75.99
2017-12-17T03:15:09.005Z,75.32
2017-12-17T03:15:50.970Z,74.75
2017-12-17T03:16:31.561Z,74.85
2017-12-17T03:17:12.499Z,74.85
2017-12-17T03:17:53.146Z,75.32
2017-12-17T03:18:33.562Z,74.75
2017-12-17T03:19:18.392Z,74.66
2017-12-17T03:19:56.306Z,74.94
2017-12-17T03:20:37.763Z,75.23
2017-12-17T03:21:18.758Z,75.23
2017-12-17T03:21:59.562Z,75.13
2017-12-17T03:22:40.210Z,75.32
2017-12-17T03:23:20.550Z,75.32
2017-12-17T03:24:01.970Z,75.7
2017-12-17T03:24:42.657Z,75.79
2017-12-17T03:25:24.162Z,76.27
2017-12-17T03:26:04.962Z,75.32
2017-12-17T03:26:45.472Z,75.6
2017-12-17T03:27:27.305Z,75.13
2017-12-17T03:28:08.213Z,76.08
2017-12-17T03:28:49.042Z,75.89
2017-12-17T03:29:29.552Z,75.6
2017-12-17T03:30:12.514Z,74.94
2017-12-17T03:30:52.878Z,76.18
2017-12-17T03:31:34.009Z,75.13
2017-12-17T03:32:15.229Z,75.13
2017-12-17T03:32:55.860Z,75.79
2017-12-17T03:33:37.049Z,75.32
2017-12-17T03:34:17.433Z,75.32
2017-12-17T03:34:59.340Z,75.23
2017-12-17T03:35:39.952Z,74.85
2017-12-17T03:36:21.887Z,74.56
2017-12-17T03:37:02.669Z,74.94
2017-12-17T03:37:43.423Z,75.13
2017-12-17T03:38:23.701Z,76.37
2017-12-17T03:39:04.160Z,76.18
2017-12-17T03:39:45.161Z,75.7
2017-12-17T03:40:26.677Z,75.79
2017-12-17T03:41:07.948Z,75.89
2017-12-17T03:41:50.661Z,75.79
2017-12-17T03:42:31.027Z,76.46
2017-12-17T03:43:11.921Z,76.46
2017-12-17T03:43:54.316Z,76.27
2017-12-17T03:44:34.965Z,75.6
2017-12-17T03:45:16.784Z,75.6
2017-12-17T03:45:57.182Z,76.27
2017-12-17T03:46:38.494Z,76.56
2017-12-17T03:47:30.765Z,76.75
2017-12-17T03:52:29.999Z,79.36
2017-12-17T03:56:34.239Z,80.94
2017-12-17T03:58:43.645Z,82.31
2017-12-17T04:43:45.383Z,82.4
2017-12-17T04:48:21.104Z,82.03
2017-12-17T04:51:05.715Z,81.74
2017-12-17T04:51:51.874Z,81.55
2017-12-17T04:52:37.436Z,81.93
2017-12-17T04:53:18.039Z,81.17
2017-12-17T04:53:58.294Z,81.36
2017-12-17T04:54:38.692Z,81.36
2017-12-17T04:55:20.007Z,80.41
2017-12-17T04:56:00.745Z,80.69
2017-12-17T04:56:40.884Z,80.32
2017-12-17T04:57:21.313Z,79.94
2017-12-17T04:58:01.621Z,79.84
2017-12-17T04:58:42.403Z,79.84
2017-12-17T04:59:26.155Z,79.46
2017-12-17T05:00:07.068Z,80.51
2017-12-17T05:00:47.729Z,80.6
2017-12-17T05:01:27.993Z,80.79
2017-12-17T05:02:08.518Z,80.32
2017-12-17T05:02:48.766Z,80.79
2017-12-17T05:03:29.534Z,80.6
2017-12-17T05:04:09.862Z,80.88
2017-12-17T05:04:50.287Z,80.32
2017-12-17T05:05:30.719Z,80.03
2017-12-17T05:06:11.051Z,80.6
2017-12-17T05:06:52.125Z,80.98
2017-12-17T05:07:32.290Z,80.6
2017-12-17T05:08:13.441Z,80.69
2017-12-17T05:08:53.772Z,80.32
2017-12-17T05:09:34.239Z,79.74
2017-12-17T05:10:14.619Z,80.13
2017-12-17T05:10:55.291Z,80.32
2017-12-17T05:11:35.412Z,80.13
2017-12-17T05:12:16.035Z,80.22
2017-12-17T05:12:57.045Z,80.22
2017-12-17T05:13:37.260Z,79.84
2017-12-17T05:14:17.607Z,79.46
2017-12-17T05:14:58.383Z,79.94
2017-12-17T05:15:38.908Z,80.22
2017-12-17T05:16:19.325Z,79.84
2017-12-17T05:16:59.930Z,79.94
2017-12-17T05:17:41.466Z,79.65
2017-12-17T05:18:22.119Z,80.41
2017-12-17T05:19:02.448Z,80.32
2017-12-17T05:19:43.560Z,79.84
2017-12-17T05:20:24.704Z,80.13
2017-12-17T05:21:05.273Z,79.46
2017-12-17T05:21:48.200Z,80.03
2017-12-17T05:22:29.070Z,78.8
2017-12-17T05:23:10.511Z,78.32
2017-12-17T05:23:52.336Z,78.8
2017-12-17T05:24:31.888Z,79.27
2017-12-17T05:25:12.573Z,79.46
2017-12-17T05:25:53.182Z,79.74
2017-12-17T05:26:33.545Z,79.74
2017-12-17T05:27:15.180Z,79.94
2017-12-17T05:27:55.697Z,80.13
2017-12-17T05:28:36.382Z,79.94
2017-12-17T05:29:16.913Z,79.84
2017-12-17T05:29:57.283Z,79.94
2017-12-17T05:30:38.889Z,80.03
2017-12-17T05:31:19.685Z,80.32
2017-12-17T05:32:00.229Z,80.03
2017-12-17T05:32:41.169Z,79.74
2017-12-17T05:33:22.169Z,79.55
2017-12-17T05:34:10.776Z,79.74
2017-12-17T05:34:47.719Z,80.13
2017-12-17T05:37:16.620Z,79.74
2017-12-17T05:42:18.668Z,79.03
2017-12-17T05:47:06.739Z,79.22
2017-12-17T05:51:50.462Z,78.64
2017-12-17T05:55:37.642Z,79.03
2017-12-17T05:56:31.103Z,79.12
2017-12-17T05:58:37.778Z,77.79
2017-12-17T05:59:24.751Z,77.89
2017-12-17T06:00:18.204Z,77.89
2017-12-17T06:01:08.761Z,77.7
2017-12-17T06:01:45.614Z,77.79
2017-12-17T06:02:26.164Z,77.6
2017-12-17T06:03:06.480Z,77.98
2017-12-17T06:03:46.892Z,78.08
2017-12-17T06:04:28.848Z,77.7
2017-12-17T06:05:09.239Z,77.51
2017-12-17T06:05:49.574Z,78.17
2017-12-17T06:06:33.337Z,77.12
2017-12-17T06:07:15.104Z,76.75
2017-12-17T06:07:55.768Z,76.75
2017-12-17T06:08:36.575Z,76.93
2017-12-17T06:09:17.062Z,77.22
2017-12-17T06:09:58.753Z,77.6
2017-12-17T06:10:47.298Z,78.55
2017-12-17T06:11:26.825Z,77.98
2017-12-17T06:12:08.221Z,77.98
2017-12-17T06:12:48.374Z,77.89
2017-12-17T06:13:28.720Z,78.55
2017-12-17T06:14:09.336Z,78.27
2017-12-17T06:19:59.054Z,78.17
2017-12-17T06:21:58.825Z,77.7
2017-12-17T06:25:48.930Z,77.41
2017-12-17T06:26:35.883Z,77.7
2017-12-17T06:30:14.052Z,78.08
2017-12-17T06:31:00.163Z,77.79
2017-12-17T06:31:42.846Z,77.22
2017-12-17T06:32:23.944Z,77.22
2017-12-17T06:33:09.372Z,77.31
2017-12-17T06:33:50.512Z,77.51
2017-12-17T06:34:31.211Z,77.89
2017-12-17T06:35:11.987Z,77.12
2017-12-17T06:35:52.380Z,76.56
2017-12-17T06:36:33.690Z,76.37
2017-12-17T06:37:14.044Z,76.93
2017-12-17T06:37:55.864Z,76.84
2017-12-17T06:41:58.894Z,76.97
2017-12-17T06:44:36.844Z,75.36
2017-12-17T06:47:17.858Z,75.84
2017-12-17T06:49:01.723Z,75.93
2017-12-17T06:53:52.010Z,76.93
2017-12-17T06:55:35.183Z,76.56
2017-12-17T06:56:17.987Z,75.99
2017-12-17T06:56:57.416Z,76.27
2017-12-17T06:57:38.688Z,75.99
2017-12-17T06:58:19.072Z,76.65
2017-12-17T06:58:59.487Z,75.89
2017-12-17T06:59:39.880Z,75.89
2017-12-17T07:00:20.651Z,76.93
2017-12-17T07:01:01.354Z,76.93
2017-12-17T07:01:41.707Z,76.93
2017-12-17T07:02:24.360Z,76.27
2017-12-17T07:03:04.917Z,76.93
2017-12-17T07:03:45.329Z,76.84
2017-12-17T07:04:26.737Z,76.65
2017-12-17T07:05:07.571Z,76.65
2017-12-17T07:05:47.996Z,77.03
2017-12-17T07:06:29.079Z,75.99
2017-12-17T07:07:09.068Z,76.56
2017-12-17T07:07:49.504Z,77.22
2017-12-17T07:08:30.577Z,77.03
2017-12-17T07:09:10.920Z,76.93
2017-12-17T07:09:51.355Z,76.84
2017-12-17T07:10:31.975Z,76.18
2017-12-17T07:11:12.289Z,76.46
2017-12-17T07:11:54.492Z,75.79
2017-12-17T07:12:35.932Z,76.46
2017-12-17T07:13:16.323Z,76.37
2017-12-17T07:13:56.692Z,76.65
2017-12-17T07:14:37.037Z,76.93
2017-12-17T07:15:17.508Z,76.75
2017-12-17T07:15:57.960Z,76.75
2017-12-17T07:16:38.230Z,76.84
2017-12-17T07:17:18.622Z,76.93
2017-12-17T07:17:59.035Z,76.93
2017-12-17T07:18:39.431Z,76.93
2017-12-17T07:19:19.830Z,76.84
2017-12-17T07:20:00.216Z,76.84
2017-12-17T07:20:40.616Z,76.75
2017-12-17T07:21:20.979Z,76.27
2017-12-17T07:22:01.414Z,76.93
2017-12-17T07:22:41.815Z,77.31
2017-12-17T07:23:22.214Z,77.22
2017-12-17T07:24:04.846Z,77.79
2017-12-17T07:24:45.639Z,76.93
2017-12-17T07:25:26.734Z,76.75
2017-12-17T07:26:06.812Z,76.4
2017-12-17T07:26:51.665Z,75.79
2017-12-17T07:27:34.000Z,76.08
2017-12-17T07:28:13.807Z,75.89
2017-12-17T07:28:55.725Z,75.79
2017-12-17T07:29:36.096Z,76.75
2017-12-17T07:30:16.540Z,76.56
2017-12-17T07:30:56.904Z,76.65
2017-12-17T07:31:37.288Z,77.41
2017-12-17T07:32:17.704Z,77.22
2017-12-17T07:32:58.099Z,77.31
2017-12-17T07:36:57.584Z,77.7
2017-12-17T07:37:42.675Z,77.89
2017-12-17T07:38:32.558Z,77.89
2017-12-17T07:40:36.323Z,77.41
2017-12-17T07:41:27.972Z,77.22
2017-12-17T07:42:19.568Z,77.7
2017-12-17T07:43:06.490Z,77.89
2017-12-17T07:43:56.591Z,77.03
2017-12-17T07:50:30.940Z,77.7
2017-12-17T07:51:24.437Z,77.7
2017-12-17T07:55:59.558Z,76.75
2017-12-17T07:56:48.661Z,76.59
2017-12-17T07:57:35.730Z,76.5
2017-12-17T07:58:29.831Z,76.69
2017-12-17T07:59:22.151Z,76.03
2017-12-17T08:03:46.157Z,76.78
2017-12-17T08:08:19.472Z,76.75
2017-12-17T08:12:15.682Z,77.17
2017-12-17T08:13:46.296Z,77.22
2017-12-17T08:14:26.610Z,77.51
2017-12-17T08:15:08.510Z,77.41
2017-12-17T08:15:49.568Z,77.31
2017-12-17T08:16:31.694Z,77.79
2017-12-17T08:17:12.263Z,77.12
2017-12-17T08:17:53.590Z,77.03
2017-12-17T08:18:35.467Z,77.92
2017-12-17T08:19:15.037Z,77.12
2017-12-17T08:19:55.689Z,77.51
2017-12-17T08:20:35.963Z,77.83
2017-12-17T08:21:18.963Z,77.79
2017-12-17T08:21:59.350Z,77.41
2017-12-17T08:22:41.636Z,77.17
2017-12-17T08:23:27.676Z,77.45
2017-12-17T08:24:05.498Z,77.26
2017-12-17T08:24:48.459Z,76.88
2017-12-17T08:25:28.753Z,77.26
2017-12-17T08:26:11.062Z,77.17
2017-12-17T08:26:51.888Z,77.45
2017-12-17T08:27:34.691Z,76.69
2017-12-17T08:28:15.674Z,76.88
2017-12-17T08:28:56.159Z,76.69
2017-12-17T08:29:37.176Z,76.69
2017-12-17T08:30:17.758Z,76.75
2017-12-17T08:30:58.928Z,76.88
2017-12-17T08:31:42.812Z,77.17
2017-12-17T08:32:28.911Z,76.69
2017-12-17T08:33:11.590Z,76.59
2017-12-17T08:33:51.717Z,77.45
2017-12-17T08:34:33.001Z,77.26
2017-12-17T08:35:14.056Z,77.26
2017-12-17T08:35:55.288Z,77.17
2017-12-17T08:36:35.115Z,77.45
2017-12-17T08:37:15.762Z,77.45
2017-12-17T08:37:56.795Z,77.26
2017-12-17T08:38:39.361Z,77.26
2017-12-17T08:39:22.933Z,76.88
2017-12-17T08:40:01.942Z,76.31
2017-12-17T08:40:43.120Z,76.31
2017-12-17T08:41:24.832Z,75.93
2017-12-17T08:42:05.231Z,75.93
2017-12-17T08:42:45.806Z,76.03
2017-12-17T08:43:26.834Z,76.12
2017-12-17T08:44:07.155Z,75.93
2017-12-17T08:44:49.870Z,76.03
2017-12-17T08:45:30.214Z,75.74
2017-12-17T08:46:11.964Z,76.12
2017-12-17T08:46:53.520Z,75.36
2017-12-17T08:47:34.090Z,75.74
2017-12-17T08:48:14.976Z,75.74
2017-12-17T08:48:55.649Z,75.26
2017-12-17T08:49:36.310Z,76.03
2017-12-17T08:50:17.065Z,76.03
2017-12-17T08:50:57.834Z,76.59
2017-12-17T08:51:38.144Z,76.12
2017-12-17T08:52:19.471Z,76.03
2017-12-17T08:53:00.307Z,75.93
2017-12-17T08:53:41.140Z,76.12
2017-12-17T08:54:26.242Z,75.93
2017-12-17T08:55:07.330Z,75.93
2017-12-17T08:55:51.388Z,76.12
2017-12-17T09:03:03.078Z,75.74
2017-12-17T09:04:56.708Z,75.93
2017-12-17T09:05:35.909Z,75.36
2017-12-17T09:06:17.070Z,75.36
2017-12-17T09:06:57.675Z,75.36
2017-12-17T09:07:38.279Z,74.88
2017-12-17T09:08:20.262Z,74.88
2017-12-17T09:09:01.812Z,75.26
2017-12-17T09:09:46.249Z,75.07
2017-12-17T09:10:26.633Z,75.07
2017-12-17T09:11:06.963Z,75.55
2017-12-17T09:11:47.558Z,76.12
2017-12-17T09:12:27.838Z,75.36
2017-12-17T09:13:09.847Z,75.02
2017-12-17T09:13:51.289Z,75.02
2017-12-17T09:14:31.044Z,74.51
2017-12-17T09:15:12.123Z,75.02
2017-12-17T09:15:55.069Z,75.4
2017-12-17T09:16:36.772Z,75.02
2017-12-17T09:17:17.203Z,74.63
2017-12-17T09:17:57.542Z,74.51
2017-12-17T09:18:37.917Z,74.69
2017-12-17T09:19:18.319Z,74.88
2017-12-17T09:19:58.644Z,75.36
2017-12-17T09:20:40.354Z,76.12
2017-12-17T09:21:21.359Z,75.64
2017-12-17T09:22:03.528Z,75.4
2017-12-17T09:22:44.771Z,75.49
2017-12-17T09:23:27.635Z,75.11
2017-12-17T09:24:09.276Z,74.92
2017-12-17T09:24:50.700Z,74.63
2017-12-17T09:25:32.663Z,74.92
2017-12-17T09:26:17.125Z,74.26
2017-12-17T09:26:58.069Z,74.26
2017-12-17T09:27:38.486Z,74.35
2017-12-17T09:28:19.885Z,74.82
2017-12-17T09:29:00.243Z,74.35
2017-12-17T09:29:41.101Z,75.11
2017-12-17T09:30:25.443Z,74.69
2017-12-17T09:31:07.187Z,75.21
2017-12-17T09:31:47.611Z,74.92
2017-12-17T09:32:28.121Z,75.59
2017-12-17T09:33:09.079Z,74.73
2017-12-17T09:33:49.458Z,74.63
2017-12-17T09:34:29.997Z,74.73
2017-12-17T09:35:13.313Z,74.63
2017-12-17T09:35:52.229Z,74.92
2017-12-17T09:36:33.018Z,74.82
2017-12-17T09:37:14.412Z,74.92
2017-12-17T09:37:54.683Z,74.63
2017-12-17T09:38:38.346Z,73.97
2017-12-17T09:39:18.039Z,74.07
2017-12-17T09:39:58.236Z,74.26
2017-12-17T09:40:40.060Z,74.16
2017-12-17T09:41:20.404Z,74.16
2017-12-17T09:42:01.082Z,73.69
2017-12-17T09:42:42.395Z,73.78
2017-12-17T09:43:23.332Z,74.07
2017-12-17T09:44:04.102Z,73.59
2017-12-17T09:44:44.368Z,73.49
2017-12-17T09:45:24.819Z,74.16
2017-12-17T09:46:05.122Z,73.4
2017-12-17T09:46:45.603Z,73.34
2017-12-17T09:47:26.795Z,72.96
2017-12-17T09:48:07.159Z,73.06
2017-12-17T09:48:47.770Z,73.11
2017-12-17T09:49:28.262Z,73.06
2017-12-17T09:50:08.533Z,72.96
2017-12-17T09:50:48.883Z,72.96
2017-12-17T09:51:29.888Z,72.3
2017-12-17T09:52:10.348Z,72.11
2017-12-17T09:52:50.846Z,71.63
2017-12-17T09:53:31.514Z,72.58
2017-12-17T09:54:12.231Z,72.96
2017-12-17T09:54:53.618Z,72.86
2017-12-17T09:55:34.098Z,72.3
2017-12-17T09:56:14.980Z,72.11
2017-12-17T09:56:55.367Z,71.91
2017-12-17T09:57:35.761Z,71.34
2017-12-17T09:58:18.115Z,71.72
2017-12-17T09:58:58.623Z,71.91
2017-12-17T09:59:38.943Z,72.01
2017-12-17T10:00:19.580Z,72.01
2017-12-17T10:01:00.277Z,72.39
2017-12-17T10:01:40.577Z,72.01
2017-12-17T10:02:21.012Z,71.63
2017-12-17T10:03:01.925Z,71.86
2017-12-17T10:03:42.262Z,71.38
2017-12-17T10:04:23.799Z,70.81
2017-12-17T10:49:24.114Z,72.3
2017-12-17T10:50:08.143Z,72.96
2017-12-17T10:50:48.201Z,72.58
2017-12-17T10:51:28.998Z,72.49
2017-12-17T10:52:09.173Z,72.39
2017-12-17T10:52:51.251Z,72.11
2017-12-17T10:53:32.147Z,72.3
2017-12-17T10:55:30.147Z,72.49
2017-12-17T10:56:15.434Z,72.67
2017-12-17T10:57:00.587Z,72.49
2017-12-17T10:57:41.445Z,72.39
2017-12-17T10:58:25.047Z,72.2
2017-12-17T10:59:05.358Z,71.91
2017-12-17T10:59:45.591Z,71.72
2017-12-17T11:00:26.036Z,71.82
2017-12-17T11:01:06.743Z,71.72
2017-12-17T11:01:47.318Z,72.11
2017-12-17T11:02:28.586Z,72.01
2017-12-17T11:03:09.454Z,71.53
2017-12-17T11:03:50.794Z,71.72
2017-12-17T11:04:30.999Z,71.63
2017-12-17T11:05:14.753Z,71.82
2017-12-17T11:05:58.743Z,71.53
2017-12-17T11:06:39.410Z,71.91
2017-12-17T11:07:20.592Z,71.91
2017-12-17T11:08:00.948Z,71.72
2017-12-17T11:08:42.258Z,71.34
2017-12-17T11:09:22.733Z,70.87
2017-12-17T11:10:03.332Z,70.87
2017-12-17T11:10:45.431Z,70.87
2017-12-17T11:11:30.911Z,70.97
2017-12-17T11:12:11.671Z,70.72
2017-12-17T11:12:51.791Z,70.77
2017-12-17T11:13:32.763Z,71.25
2017-12-17T11:14:15.661Z,71.47
2017-12-17T11:14:54.871Z,70.43
2017-12-17T11:15:35.476Z,70.77
2017-12-17T11:16:15.948Z,70.49
2017-12-17T11:17:00.727Z,71.44
2017-12-17T11:17:41.279Z,71.53
2017-12-17T11:18:21.836Z,71.53
2017-12-17T11:19:04.119Z,71.34
2017-12-17T11:19:43.881Z,71.44
2017-12-17T11:20:25.371Z,71.44
2017-12-17T11:21:05.786Z,70.39
2017-12-17T11:21:47.352Z,70.39
2017-12-17T11:22:30.318Z,70.68
2017-12-17T11:23:10.663Z,70.81
2017-12-17T11:23:53.954Z,70.68
2017-12-17T11:24:34.814Z,70.2
2017-12-17T11:25:16.806Z,70.9
2017-12-17T11:25:57.307Z,71.44
2017-12-17T11:26:39.328Z,70.72
2017-12-17T11:27:19.797Z,70.33
2017-12-17T11:28:00.995Z,70.58
2017-12-17T11:28:42.878Z,71.06
2017-12-17T11:29:24.350Z,71.44
2017-12-17T11:30:08.580Z,71.57
2017-12-17T11:30:49.572Z,71.44
2017-12-17T11:31:33.091Z,71.09
2017-12-17T11:32:13.169Z,70.87
2017-12-17T11:32:54.412Z,70.52
2017-12-17T11:33:35.614Z,70.33
2017-12-17T11:34:17.013Z,70.52
2017-12-17T11:34:58.097Z,70.14
2017-12-17T11:35:38.552Z,69.67
2017-12-17T11:36:19.283Z,69.76
2017-12-17T11:37:00.447Z,69.1
2017-12-17T11:52:52.136Z,70.14
2017-12-17T11:55:46.273Z,69.57
2017-12-17T11:56:29.112Z,70.14
2017-12-17T11:57:08.666Z,69.19
2017-12-17T11:58:31.384Z,69.48
2017-12-17T11:59:11.338Z,69.57
2017-12-17T11:59:51.751Z,69.48
2017-12-17T12:00:32.151Z,69
2017-12-17T12:01:12.522Z,69.85
2017-12-17T12:01:52.962Z,69.38
2017-12-17T12:02:33.401Z,69.85
2017-12-17T12:03:13.788Z,69.29
2017-12-17T12:03:54.211Z,69.29
2017-12-17T12:04:35.700Z,69.85
2017-12-17T12:05:16.511Z,69.29
2017-12-17T12:05:56.448Z,69.95
2017-12-17T12:06:37.303Z,69.48
2017-12-17T12:07:17.950Z,69.1
2017-12-17T12:07:58.379Z,69.29
2017-12-17T12:08:39.175Z,68.81
2017-12-17T12:09:20.167Z,69.29
2017-12-17T12:10:01.606Z,69.85
2017-12-17T12:10:43.436Z,70.24
2017-12-17T12:11:23.892Z,70.24
2017-12-17T12:12:09.352Z,69.95
2017-12-17T12:12:49.734Z,70.24
2017-12-17T12:13:30.114Z,70.52
2017-12-17T12:14:10.484Z,69.85
2017-12-17T12:14:51.730Z,69.76
2017-12-17T12:15:32.431Z,69.57
2017-12-17T12:16:14.591Z,69.48
2017-12-17T12:16:55.552Z,69.48
2017-12-17T12:17:35.840Z,69.57
2017-12-17T12:18:18.737Z,70.05
2017-12-17T12:18:58.097Z,69.85
2017-12-17T12:19:40.471Z,70.43
2017-12-17T12:20:20.923Z,70.33
2017-12-17T12:21:01.506Z,70.24
2017-12-17T12:21:42.184Z,69.38
2017-12-17T12:22:23.862Z,69.29
2017-12-17T12:23:04.316Z,69
2017-12-17T12:23:44.607Z,69.1
2017-12-17T12:24:26.233Z,69.67
2017-12-17T12:25:06.501Z,69.85
2017-12-17T12:25:47.599Z,70.01
2017-12-17T12:26:27.966Z,70.72
2017-12-17T12:27:11.460Z,70.62
2017-12-17T12:27:49.956Z,70.9
2017-12-17T12:28:30.314Z,71
2017-12-17T12:29:10.678Z,70.43
2017-12-17T12:29:57.044Z,71
2017-12-17T12:30:36.480Z,69.85
2017-12-17T12:31:16.998Z,70.24
2017-12-17T12:31:57.341Z,70.33
2017-12-17T12:32:38.741Z,70.14
2017-12-17T12:33:20.588Z,69.95
2017-12-17T12:35:27.602Z,69.57
2017-12-17T12:36:16.682Z,70.05
2017-12-17T12:37:05.536Z,70.05
2017-12-17T12:39:13.078Z,69.48
2017-12-17T12:39:54.066Z,69.48
2017-12-17T12:45:59.954Z,70.24
2017-12-17T12:47:54.722Z,69.1
2017-12-17T12:48:43.306Z,69.6
2017-12-17T12:49:22.519Z,69.23
2017-12-17T12:50:03.526Z,68.94
2017-12-17T12:50:44.181Z,68.56
2017-12-17T12:51:24.595Z,68.37
2017-12-17T12:52:05.341Z,68.84
2017-12-17T12:52:45.784Z,68.08
2017-12-17T12:53:26.162Z,67.89
2017-12-17T12:54:06.549Z,67.89
2017-12-17T12:54:47.087Z,68.18
2017-12-17T12:55:27.769Z,67.89
2017-12-17T12:56:10.580Z,66.97
2017-12-17T12:56:50.236Z,66.59
2017-12-17T12:57:32.903Z,65.73
2017-12-17T12:58:13.362Z,66.11
2017-12-17T12:58:54.445Z,66.11
2017-12-17T12:59:41.903Z,66.08
2017-12-17T13:00:25.818Z,66.11
2017-12-17T13:01:09.642Z,66.11
2017-12-17T13:03:49.327Z,65.73
2017-12-17T13:04:41.865Z,66.27
2017-12-17T13:12:57.284Z,66.66
2017-12-17T13:15:54.717Z,67.22
2017-12-17T13:16:42.023Z,67.61
2017-12-17T13:28:07.762Z,69.29
2017-12-17T13:37:22.890Z,70.14
2017-12-17T13:39:40.215Z,69.63
2017-12-17T13:40:20.890Z,70.2
2017-12-17T13:41:01.291Z,70.39
2017-12-17T13:41:41.623Z,70.39
2017-12-17T13:42:22.057Z,70.3
2017-12-17T13:43:02.658Z,70.68
2017-12-17T13:43:43.769Z,70.1
2017-12-17T13:44:31.734Z,70.77
2017-12-17T13:45:12.543Z,70.68
2017-12-17T13:45:53.478Z,71.53
2017-12-17T13:46:33.785Z,71.34
2017-12-17T13:47:14.184Z,70.77
2017-12-17T13:47:55.400Z,70.39
2017-12-17T13:48:36.475Z,70.87
2017-12-17T13:49:17.551Z,70.3
2017-12-17T13:49:57.821Z,70.97
2017-12-17T13:50:38.343Z,71.06
2017-12-17T13:51:20.330Z,70.97
2017-12-17T13:52:03.523Z,70.97
2017-12-17T13:52:46.037Z,70.77
2017-12-17T13:53:28.117Z,70.39
2017-12-17T13:54:08.433Z,71
2017-12-17T13:54:48.836Z,70.52
2017-12-17T13:55:29.388Z,69.76
2017-12-17T13:56:10.097Z,70.24
2017-12-17T13:56:50.440Z,69.67
2017-12-17T13:57:31.681Z,69.48
2017-12-17T13:58:13.865Z,69.48
2017-12-17T13:58:54.617Z,69.29
2017-12-17T13:59:34.777Z,69.76
2017-12-17T14:00:15.263Z,69.29
2017-12-17T14:00:55.693Z,69.19
2017-12-17T14:01:36.278Z,69.29
2017-12-17T14:02:18.082Z,69.48
2017-12-17T14:02:58.833Z,69.1
2017-12-17T14:03:40.554Z,69.48
2017-12-17T14:04:28.129Z,69.48
2017-12-17T14:05:08.454Z,69.1
2017-12-17T14:05:48.855Z,69.95
2017-12-17T14:06:29.305Z,69.85
2017-12-17T14:07:10.376Z,69.19
2017-12-17T14:07:50.850Z,68.81
2017-12-17T14:08:31.211Z,69
2017-12-17T14:09:15.477Z,69.29
2017-12-17T14:09:53.878Z,69.48
2017-12-17T14:10:34.326Z,69.38
2017-12-17T14:11:14.690Z,69.19
2017-12-17T14:11:55.190Z,68.68
2017-12-17T14:12:35.505Z,69.76
2017-12-17T14:13:15.975Z,69.73
2017-12-17T14:13:56.371Z,69.35
2017-12-17T14:14:36.720Z,68.96
2017-12-17T14:15:17.196Z,69.25
2017-12-17T14:15:57.621Z,69.73
2017-12-17T14:16:38.163Z,70.01
2017-12-17T14:17:19.339Z,70.1
2017-12-17T14:17:59.384Z,70.77
2017-12-17T14:18:39.805Z,70.77
2017-12-17T14:19:20.274Z,71.53
2017-12-17T14:20:00.620Z,71.63
2017-12-17T14:20:41.899Z,70.68
2017-12-17T14:21:22.298Z,70.58
2017-12-17T14:22:06.301Z,71.44
2017-12-17T14:22:46.464Z,70.87
2017-12-17T14:23:26.889Z,70.39
2017-12-17T14:24:07.766Z,70.39
2017-12-17T14:24:50.380Z,70.49
2017-12-17T14:25:30.472Z,70.3
2017-12-17T14:26:10.810Z,70.62
2017-12-17T14:26:51.239Z,70.39
2017-12-17T14:27:31.668Z,69.92
2017-12-17T14:28:12.090Z,70.14
2017-12-17T14:28:52.434Z,69.73
2017-12-17T14:29:32.834Z,69.73
2017-12-17T14:30:13.327Z,70.01
2017-12-17T14:30:53.762Z,70.2
2017-12-17T14:31:34.108Z,70.68
2017-12-17T14:32:14.533Z,70.1
2017-12-17T14:32:54.958Z,70.39
2017-12-17T14:33:35.326Z,70.87
2017-12-17T14:34:15.713Z,71.06
2017-12-17T14:34:56.114Z,70.39
2017-12-17T14:35:36.572Z,70.77
2017-12-17T14:36:16.997Z,70.87
2017-12-17T14:36:57.378Z,70.77
2017-12-17T14:37:37.832Z,70.68
2017-12-17T14:38:18.195Z,70.97
2017-12-17T14:38:58.607Z,70.49
2017-12-17T14:39:39.004Z,70.77
2017-12-17T14:40:19.408Z,71.06
2017-12-17T14:40:59.862Z,70.87
2017-12-17T14:41:40.268Z,71.63
2017-12-17T14:42:20.670Z,71.53
2017-12-17T14:43:01.078Z,71.44
2017-12-17T14:43:41.509Z,71.44
2017-12-17T14:44:21.859Z,71.44
2017-12-17T14:45:02.229Z,71.15
2017-12-17T14:45:42.657Z,70.77
2017-12-17T14:46:23.002Z,71.44
2017-12-17T14:47:03.491Z,71.67
2017-12-17T14:47:43.853Z,71.19
2017-12-17T14:48:24.234Z,71.09
2017-12-17T14:49:04.644Z,70.72
2017-12-17T14:49:47.175Z,70.72
2017-12-17T14:50:27.940Z,70.24
2017-12-17T14:51:08.025Z,70.14
2017-12-17T14:51:48.532Z,70.68
2017-12-17T14:52:28.957Z,71
2017-12-17T14:53:09.368Z,71.19
2017-12-17T14:53:49.717Z,70.58
2017-12-17T14:54:30.116Z,71
2017-12-17T14:55:10.514Z,70.3
2017-12-17T14:55:50.880Z,70.2
2017-12-17T14:56:31.308Z,70.52
2017-12-17T14:57:11.780Z,70.58
2017-12-17T14:57:52.073Z,70.87
2017-12-17T14:58:32.485Z,70.68
2017-12-17T14:59:12.857Z,70.01
2017-12-17T15:02:52.186Z,71.34
2017-12-17T15:03:35.241Z,71.44
2017-12-17T15:04:14.195Z,71.63
2017-12-17T15:04:54.624Z,71.63
2017-12-17T15:05:34.973Z,71.25
2017-12-17T15:06:15.410Z,71.53
2017-12-17T15:06:58.739Z,71.91
2017-12-17T15:07:39.169Z,71.72
2017-12-17T15:08:19.565Z,71.63